EGE weather

Eagle County Regional Airport
Eagle, Colorado, United States

Public forecast

Using degrees Fahrenheit for public forecast. Weather courtesy of forecast.io.

Current aviation weather report (METAR) for Eagle County Regional Airport

Retrieved 2019/12/11 01:56 UTC (39 minutes ago):

KEGE 110156Z 09006KT 10SM CLR M02/M06 A3031 RMK AO2 SLP316 T10221061 PNO

Aviation forecast (TAF) for Eagle County Regional Airport

Retrieved 2019-12-11 00:24 UTC (2 hours ago):

TAF KEGE 102320Z 1100/1124 VRB04KT P6SM BKN250